sensor_id;sensor_type;location;lat;lon;timestamp;P1;durP1;ratioP1;P2;durP2;ratioP2
22318;SDS011;11327;52.334;9.506;2023-06-22T00:00:06;8.70;;;7.80;;
22318;SDS011;11327;52.334;9.506;2023-06-22T00:03:29;8.63;;;7.72;;
22318;SDS011;11327;52.334;9.506;2023-06-22T00:06:51;11.22;;;8.23;;
22318;SDS011;11327;52.334;9.506;2023-06-22T00:10:11;12.18;;;8.60;;
22318;SDS011;11327;52.334;9.506;2023-06-22T00:13:32;9.68;;;8.78;;
22318;SDS011;11327;52.334;9.506;2023-06-22T00:16:53;10.05;;;9.00;;
22318;SDS011;11327;52.334;9.506;2023-06-22T00:20:17;11.68;;;9.78;;
22318;SDS011;11327;52.334;9.506;2023-06-22T00:23:41;11.65;;;10.45;;
22318;SDS011;11327;52.334;9.506;2023-06-22T00:27:02;10.20;;;9.13;;
22318;SDS011;11327;52.334;9.506;2023-06-22T00:30:25;10.53;;;9.35;;
22318;SDS011;11327;52.334;9.506;2023-06-22T00:33:46;9.53;;;8.53;;
22318;SDS011;11327;52.334;9.506;2023-06-22T00:37:07;10.00;;;8.43;;
22318;SDS011;11327;52.334;9.506;2023-06-22T00:40:28;10.58;;;8.33;;
22318;SDS011;11327;52.334;9.506;2023-06-22T00:43:49;13.18;;;8.43;;
22318;SDS011;11327;52.334;9.506;2023-06-22T00:47:13;14.80;;;8.98;;
22318;SDS011;11327;52.334;9.506;2023-06-22T00:50:36;12.40;;;8.63;;
22318;SDS011;11327;52.334;9.506;2023-06-22T00:53:57;14.63;;;9.05;;
22318;SDS011;11327;52.334;9.506;2023-06-22T00:57:19;14.13;;;8.83;;
22318;SDS011;11327;52.334;9.506;2023-06-22T01:00:41;13.65;;;8.93;;
22318;SDS011;11327;52.334;9.506;2023-06-22T01:04:02;15.38;;;10.15;;
22318;SDS011;11327;52.334;9.506;2023-06-22T01:07:27;12.80;;;8.78;;
22318;SDS011;11327;52.334;9.506;2023-06-22T01:11:01;12.25;;;9.23;;
22318;SDS011;11327;52.334;9.506;2023-06-22T01:14:19;12.80;;;9.18;;
22318;SDS011;11327;52.334;9.506;2023-06-22T01:17:41;10.85;;;9.43;;
22318;SDS011;11327;52.334;9.506;2023-06-22T01:21:04;15.18;;;9.93;;
22318;SDS011;11327;52.334;9.506;2023-06-22T01:28:03;14.25;;;9.80;;
22318;SDS011;11327;52.334;9.506;2023-06-22T01:31:27;13.03;;;10.08;;
22318;SDS011;11327;52.334;9.506;2023-06-22T01:34:50;11.45;;;9.35;;
22318;SDS011;11327;52.334;9.506;2023-06-22T01:38:11;12.25;;;9.80;;
22318;SDS011;11327;52.334;9.506;2023-06-22T01:41:34;16.85;;;10.45;;
22318;SDS011;11327;52.334;9.506;2023-06-22T01:44:56;14.07;;;9.78;;
22318;SDS011;11327;52.334;9.506;2023-06-22T01:48:17;17.12;;;9.60;;
22318;SDS011;11327;52.334;9.506;2023-06-22T01:51:39;13.75;;;9.10;;
22318;SDS011;11327;52.334;9.506;2023-06-22T01:55:00;14.60;;;9.33;;
22318;SDS011;11327;52.334;9.506;2023-06-22T01:58:21;13.18;;;9.30;;
22318;SDS011;11327;52.334;9.506;2023-06-22T02:01:50;15.13;;;9.48;;
22318;SDS011;11327;52.334;9.506;2023-06-22T02:05:10;16.37;;;9.03;;
22318;SDS011;11327;52.334;9.506;2023-06-22T02:08:36;12.28;;;8.98;;
22318;SDS011;11327;52.334;9.506;2023-06-22T02:12:02;17.60;;;10.08;;
22318;SDS011;11327;52.334;9.506;2023-06-22T02:15:25;13.08;;;9.05;;
22318;SDS011;11327;52.334;9.506;2023-06-22T02:18:46;14.07;;;8.95;;
22318;SDS011;11327;52.334;9.506;2023-06-22T02:22:10;15.50;;;9.63;;
22318;SDS011;11327;52.334;9.506;2023-06-22T02:25:32;15.20;;;9.90;;
22318;SDS011;11327;52.334;9.506;2023-06-22T02:28:53;14.75;;;10.78;;
22318;SDS011;11327;52.334;9.506;2023-06-22T02:32:14;11.75;;;9.78;;
22318;SDS011;11327;52.334;9.506;2023-06-22T02:35:36;13.58;;;10.53;;
22318;SDS011;11327;52.334;9.506;2023-06-22T02:38:58;15.75;;;11.18;;
22318;SDS011;11327;52.334;9.506;2023-06-22T02:42:21;13.58;;;10.75;;
22318;SDS011;11327;52.334;9.506;2023-06-22T02:45:42;16.93;;;11.00;;
22318;SDS011;11327;52.334;9.506;2023-06-22T02:49:02;14.13;;;10.85;;
22318;SDS011;11327;52.334;9.506;2023-06-22T02:52:23;15.85;;;10.10;;
22318;SDS011;11327;52.334;9.506;2023-06-22T02:55:44;11.50;;;9.68;;
22318;SDS011;11327;52.334;9.506;2023-06-22T02:59:04;16.55;;;9.70;;
22318;SDS011;11327;52.334;9.506;2023-06-22T03:02:25;15.70;;;10.43;;
22318;SDS011;11327;52.334;9.506;2023-06-22T03:05:46;13.88;;;10.13;;
22318;SDS011;11327;52.334;9.506;2023-06-22T03:09:07;16.67;;;10.55;;
22318;SDS011;11327;52.334;9.506;2023-06-22T03:12:28;16.00;;;10.25;;
22318;SDS011;11327;52.334;9.506;2023-06-22T03:15:49;14.05;;;10.80;;
22318;SDS011;11327;52.334;9.506;2023-06-22T03:19:09;12.70;;;10.08;;
22318;SDS011;11327;52.334;9.506;2023-06-22T03:22:30;14.28;;;10.55;;
22318;SDS011;11327;52.334;9.506;2023-06-22T03:25:51;16.70;;;9.53;;
22318;SDS011;11327;52.334;9.506;2023-06-22T03:29:12;13.45;;;8.88;;
22318;SDS011;11327;52.334;9.506;2023-06-22T03:32:32;13.28;;;9.43;;
22318;SDS011;11327;52.334;9.506;2023-06-22T03:35:53;14.70;;;8.98;;
22318;SDS011;11327;52.334;9.506;2023-06-22T03:39:14;12.80;;;8.53;;
22318;SDS011;11327;52.334;9.506;2023-06-22T03:42:35;17.07;;;9.18;;
22318;SDS011;11327;52.334;9.506;2023-06-22T03:45:58;15.18;;;9.75;;
22318;SDS011;11327;52.334;9.506;2023-06-22T03:49:19;13.13;;;9.33;;
22318;SDS011;11327;52.334;9.506;2023-06-22T03:52:39;13.38;;;9.30;;
22318;SDS011;11327;52.334;9.506;2023-06-22T03:56:00;14.50;;;8.88;;
22318;SDS011;11327;52.334;9.506;2023-06-22T03:59:21;17.60;;;9.88;;
22318;SDS011;11327;52.334;9.506;2023-06-22T04:02:42;15.00;;;10.43;;
22318;SDS011;11327;52.334;9.506;2023-06-22T04:06:02;17.30;;;9.73;;
22318;SDS011;11327;52.334;9.506;2023-06-22T04:09:23;16.95;;;9.90;;
22318;SDS011;11327;52.334;9.506;2023-06-22T04:12:44;16.95;;;9.65;;
22318;SDS011;11327;52.334;9.506;2023-06-22T04:16:05;16.05;;;9.38;;
22318;SDS011;11327;52.334;9.506;2023-06-22T04:19:25;13.58;;;10.03;;
22318;SDS011;11327;52.334;9.506;2023-06-22T04:22:46;14.95;;;10.08;;
22318;SDS011;11327;52.334;9.506;2023-06-22T04:26:07;16.62;;;9.50;;
22318;SDS011;11327;52.334;9.506;2023-06-22T04:29:28;17.15;;;10.10;;
22318;SDS011;11327;52.334;9.506;2023-06-22T04:32:50;18.90;;;10.23;;
22318;SDS011;11327;52.334;9.506;2023-06-22T04:36:13;17.17;;;11.15;;
22318;SDS011;11327;52.334;9.506;2023-06-22T04:39:34;15.13;;;11.80;;
22318;SDS011;11327;52.334;9.506;2023-06-22T04:42:55;14.35;;;11.70;;
22318;SDS011;11327;52.334;9.506;2023-06-22T04:46:15;13.85;;;11.53;;
22318;SDS011;11327;52.334;9.506;2023-06-22T04:49:36;16.55;;;11.68;;
22318;SDS011;11327;52.334;9.506;2023-06-22T04:52:57;12.98;;;11.48;;
22318;SDS011;11327;52.334;9.506;2023-06-22T04:56:18;13.98;;;11.75;;
22318;SDS011;11327;52.334;9.506;2023-06-22T04:59:41;15.13;;;11.83;;
22318;SDS011;11327;52.334;9.506;2023-06-22T05:03:02;15.10;;;12.30;;
22318;SDS011;11327;52.334;9.506;2023-06-22T05:06:24;16.17;;;13.05;;
22318;SDS011;11327;52.334;9.506;2023-06-22T05:09:45;16.00;;;13.20;;
22318;SDS011;11327;52.334;9.506;2023-06-22T05:13:05;16.17;;;14.10;;
22318;SDS011;11327;52.334;9.506;2023-06-22T05:16:26;14.43;;;12.93;;
22318;SDS011;11327;52.334;9.506;2023-06-22T05:19:47;16.30;;;14.53;;
22318;SDS011;11327;52.334;9.506;2023-06-22T05:23:10;16.62;;;14.73;;
22318;SDS011;11327;52.334;9.506;2023-06-22T05:26:32;19.32;;;15.30;;
22318;SDS011;11327;52.334;9.506;2023-06-22T05:29:54;15.93;;;14.23;;
22318;SDS011;11327;52.334;9.506;2023-06-22T05:33:15;16.15;;;14.55;;
22318;SDS011;11327;52.334;9.506;2023-06-22T05:36:36;15.75;;;14.15;;
22318;SDS011;11327;52.334;9.506;2023-06-22T05:39:56;15.90;;;14.28;;
22318;SDS011;11327;52.334;9.506;2023-06-22T05:43:17;16.75;;;15.15;;
22318;SDS011;11327;52.334;9.506;2023-06-22T05:46:42;15.72;;;14.13;;
22318;SDS011;11327;52.334;9.506;2023-06-22T05:50:08;16.50;;;14.87;;
22318;SDS011;11327;52.334;9.506;2023-06-22T05:53:29;15.20;;;13.60;;
22318;SDS011;11327;52.334;9.506;2023-06-22T05:56:50;18.05;;;16.15;;
22318;SDS011;11327;52.334;9.506;2023-06-22T06:00:11;16.15;;;14.43;;
22318;SDS011;11327;52.334;9.506;2023-06-22T06:03:33;16.40;;;14.73;;
22318;SDS011;11327;52.334;9.506;2023-06-22T06:06:54;18.37;;;16.35;;
22318;SDS011;11327;52.334;9.506;2023-06-22T06:10:15;18.57;;;16.60;;
22318;SDS011;11327;52.334;9.506;2023-06-22T06:13:36;17.37;;;15.58;;
22318;SDS011;11327;52.334;9.506;2023-06-22T06:16:56;17.17;;;15.38;;
22318;SDS011;11327;52.334;9.506;2023-06-22T06:20:21;16.93;;;15.18;;
22318;SDS011;11327;52.334;9.506;2023-06-22T06:23:43;16.40;;;14.80;;
22318;SDS011;11327;52.334;9.506;2023-06-22T06:27:04;15.60;;;13.68;;
22318;SDS011;11327;52.334;9.506;2023-06-22T06:30:25;14.83;;;13.32;;
22318;SDS011;11327;52.334;9.506;2023-06-22T06:33:46;18.32;;;16.32;;
22318;SDS011;11327;52.334;9.506;2023-06-22T06:37:06;15.40;;;13.83;;
22318;SDS011;11327;52.334;9.506;2023-06-22T06:40:27;15.78;;;14.15;;
22318;SDS011;11327;52.334;9.506;2023-06-22T06:43:48;15.48;;;13.53;;
22318;SDS011;11327;52.334;9.506;2023-06-22T06:47:08;15.85;;;13.72;;
22318;SDS011;11327;52.334;9.506;2023-06-22T06:50:29;15.10;;;13.60;;
22318;SDS011;11327;52.334;9.506;2023-06-22T06:53:50;15.90;;;14.20;;
22318;SDS011;11327;52.334;9.506;2023-06-22T06:57:11;14.55;;;13.05;;
22318;SDS011;11327;52.334;9.506;2023-06-22T07:00:33;16.23;;;14.13;;
22318;SDS011;11327;52.334;9.506;2023-06-22T07:03:55;11.97;;;10.75;;
22318;SDS011;11327;52.334;9.506;2023-06-22T07:07:16;14.70;;;12.33;;
22318;SDS011;11327;52.334;9.506;2023-06-22T07:10:37;14.40;;;12.10;;
22318;SDS011;11327;52.334;9.506;2023-06-22T07:13:57;13.03;;;11.25;;
22318;SDS011;11327;52.334;9.506;2023-06-22T07:17:19;13.38;;;11.97;;
22318;SDS011;11327;52.334;9.506;2023-06-22T07:20:39;14.03;;;10.82;;
22318;SDS011;11327;52.334;9.506;2023-06-22T07:24:01;12.30;;;10.63;;
22318;SDS011;11327;52.334;9.506;2023-06-22T07:27:22;11.70;;;10.50;;
22318;SDS011;11327;52.334;9.506;2023-06-22T07:30:43;13.48;;;10.93;;
22318;SDS011;11327;52.334;9.506;2023-06-22T07:34:03;11.22;;;10.03;;
22318;SDS011;11327;52.334;9.506;2023-06-22T07:37:24;12.35;;;10.58;;
22318;SDS011;11327;52.334;9.506;2023-06-22T07:40:47;11.30;;;10.15;;
22318;SDS011;11327;52.334;9.506;2023-06-22T07:44:08;12.33;;;10.95;;
22318;SDS011;11327;52.334;9.506;2023-06-22T07:47:29;10.43;;;9.28;;
22318;SDS011;11327;52.334;9.506;2023-06-22T07:50:50;12.15;;;9.18;;
22318;SDS011;11327;52.334;9.506;2023-06-22T07:54:11;11.83;;;10.13;;
22318;SDS011;11327;52.334;9.506;2023-06-22T07:57:31;10.75;;;9.60;;
22318;SDS011;11327;52.334;9.506;2023-06-22T08:00:53;10.25;;;8.60;;
22318;SDS011;11327;52.334;9.506;2023-06-22T08:04:14;11.40;;;8.13;;
22318;SDS011;11327;52.334;9.506;2023-06-22T08:07:35;11.45;;;8.80;;
22318;SDS011;11327;52.334;9.506;2023-06-22T08:10:57;11.35;;;9.78;;
22318;SDS011;11327;52.334;9.506;2023-06-22T08:14:18;12.20;;;10.30;;
22318;SDS011;11327;52.334;9.506;2023-06-22T08:17:39;11.10;;;10.00;;
22318;SDS011;11327;52.334;9.506;2023-06-22T08:21:00;13.58;;;10.60;;
22318;SDS011;11327;52.334;9.506;2023-06-22T08:24:20;11.08;;;9.93;;
22318;SDS011;11327;52.334;9.506;2023-06-22T08:27:44;11.80;;;10.60;;
22318;SDS011;11327;52.334;9.506;2023-06-22T08:31:08;14.38;;;10.98;;
22318;SDS011;11327;52.334;9.506;2023-06-22T08:34:29;12.25;;;10.95;;
22318;SDS011;11327;52.334;9.506;2023-06-22T08:37:49;11.35;;;10.18;;
22318;SDS011;11327;52.334;9.506;2023-06-22T08:41:12;11.97;;;10.78;;
22318;SDS011;11327;52.334;9.506;2023-06-22T08:44:33;12.13;;;10.70;;
22318;SDS011;11327;52.334;9.506;2023-06-22T08:47:53;14.13;;;11.18;;
22318;SDS011;11327;52.334;9.506;2023-06-22T08:51:14;12.43;;;10.93;;
22318;SDS011;11327;52.334;9.506;2023-06-22T08:54:35;12.55;;;11.25;;
22318;SDS011;11327;52.334;9.506;2023-06-22T08:57:56;12.98;;;11.38;;
22318;SDS011;11327;52.334;9.506;2023-06-22T09:01:16;12.13;;;10.93;;
22318;SDS011;11327;52.334;9.506;2023-06-22T09:04:37;12.23;;;10.80;;
22318;SDS011;11327;52.334;9.506;2023-06-22T09:07:58;14.07;;;10.75;;
22318;SDS011;11327;52.334;9.506;2023-06-22T09:11:19;12.13;;;10.82;;
22318;SDS011;11327;52.334;9.506;2023-06-22T09:14:39;11.35;;;10.15;;
22318;SDS011;11327;52.334;9.506;2023-06-22T09:18:00;11.22;;;9.88;;
22318;SDS011;11327;52.334;9.506;2023-06-22T09:21:21;11.60;;;10.40;;
22318;SDS011;11327;52.334;9.506;2023-06-22T09:24:42;10.78;;;9.68;;
22318;SDS011;11327;52.334;9.506;2023-06-22T09:28:03;11.43;;;10.23;;
22318;SDS011;11327;52.334;9.506;2023-06-22T09:31:24;11.88;;;10.10;;
22318;SDS011;11327;52.334;9.506;2023-06-22T09:34:47;11.95;;;9.28;;
22318;SDS011;11327;52.334;9.506;2023-06-22T09:38:07;13.08;;;10.00;;
22318;SDS011;11327;52.334;9.506;2023-06-22T09:41:28;12.10;;;10.93;;
22318;SDS011;11327;52.334;9.506;2023-06-22T09:44:49;10.30;;;9.20;;
22318;SDS011;11327;52.334;9.506;2023-06-22T09:48:10;13.65;;;10.38;;
22318;SDS011;11327;52.334;9.506;2023-06-22T09:51:30;9.58;;;8.68;;
22318;SDS011;11327;52.334;9.506;2023-06-22T09:54:51;9.70;;;8.78;;
22318;SDS011;11327;52.334;9.506;2023-06-22T09:58:12;10.50;;;9.50;;
22318;SDS011;11327;52.334;9.506;2023-06-22T10:01:33;9.43;;;8.40;;
22318;SDS011;11327;52.334;9.506;2023-06-22T10:04:54;12.53;;;10.20;;
22318;SDS011;11327;52.334;9.506;2023-06-22T10:08:14;12.58;;;10.45;;
22318;SDS011;11327;52.334;9.506;2023-06-22T10:11:35;11.78;;;10.58;;
22318;SDS011;11327;52.334;9.506;2023-06-22T10:14:57;11.20;;;10.10;;
22318;SDS011;11327;52.334;9.506;2023-06-22T10:18:18;10.30;;;9.30;;
22318;SDS011;11327;52.334;9.506;2023-06-22T10:21:39;11.20;;;10.03;;
22318;SDS011;11327;52.334;9.506;2023-06-22T10:25:00;10.70;;;9.55;;
22318;SDS011;11327;52.334;9.506;2023-06-22T10:28:20;12.40;;;10.68;;
22318;SDS011;11327;52.334;9.506;2023-06-22T10:31:41;11.57;;;10.40;;
22318;SDS011;11327;52.334;9.506;2023-06-22T10:35:02;10.93;;;9.93;;
22318;SDS011;11327;52.334;9.506;2023-06-22T10:38:23;11.95;;;10.60;;
22318;SDS011;11327;52.334;9.506;2023-06-22T10:41:44;11.70;;;10.58;;
22318;SDS011;11327;52.334;9.506;2023-06-22T10:45:05;12.00;;;10.68;;
22318;SDS011;11327;52.334;9.506;2023-06-22T10:48:26;11.85;;;10.70;;
22318;SDS011;11327;52.334;9.506;2023-06-22T10:51:49;12.23;;;10.55;;
22318;SDS011;11327;52.334;9.506;2023-06-22T10:55:10;13.68;;;10.35;;
22318;SDS011;11327;52.334;9.506;2023-06-22T10:58:31;13.05;;;11.50;;
22318;SDS011;11327;52.334;9.506;2023-06-22T11:01:52;13.43;;;11.95;;
22318;SDS011;11327;52.334;9.506;2023-06-22T11:05:13;12.63;;;11.38;;
22318;SDS011;11327;52.334;9.506;2023-06-22T11:08:34;15.30;;;11.73;;
22318;SDS011;11327;52.334;9.506;2023-06-22T11:11:55;13.58;;;12.00;;
22318;SDS011;11327;52.334;9.506;2023-06-22T11:15:16;12.90;;;11.63;;
22318;SDS011;11327;52.334;9.506;2023-06-22T11:18:37;12.70;;;11.50;;
22318;SDS011;11327;52.334;9.506;2023-06-22T11:21:58;13.43;;;12.10;;
22318;SDS011;11327;52.334;9.506;2023-06-22T11:25:19;14.10;;;12.63;;
22318;SDS011;11327;52.334;9.506;2023-06-22T11:28:39;11.97;;;10.70;;
22318;SDS011;11327;52.334;9.506;2023-06-22T11:32:00;14.00;;;12.60;;
22318;SDS011;11327;52.334;9.506;2023-06-22T11:35:21;14.05;;;12.65;;
22318;SDS011;11327;52.334;9.506;2023-06-22T11:38:42;12.80;;;11.60;;
22318;SDS011;11327;52.334;9.506;2023-06-22T11:42:03;13.60;;;12.20;;
22318;SDS011;11327;52.334;9.506;2023-06-22T11:45:24;12.73;;;11.35;;
22318;SDS011;11327;52.334;9.506;2023-06-22T11:48:45;13.85;;;12.35;;
22318;SDS011;11327;52.334;9.506;2023-06-22T11:52:06;13.13;;;11.90;;
22318;SDS011;11327;52.334;9.506;2023-06-22T11:55:26;15.28;;;13.53;;
22318;SDS011;11327;52.334;9.506;2023-06-22T11:58:47;14.05;;;12.73;;
22318;SDS011;11327;52.334;9.506;2023-06-22T12:02:08;14.58;;;13.08;;
22318;SDS011;11327;52.334;9.506;2023-06-22T12:05:29;14.07;;;12.75;;
22318;SDS011;11327;52.334;9.506;2023-06-22T12:08:50;13.83;;;12.43;;
22318;SDS011;11327;52.334;9.506;2023-06-22T12:12:11;13.38;;;11.80;;
22318;SDS011;11327;52.334;9.506;2023-06-22T12:15:31;13.13;;;11.85;;
22318;SDS011;11327;52.334;9.506;2023-06-22T12:18:52;13.00;;;11.70;;
22318;SDS011;11327;52.334;9.506;2023-06-22T12:22:13;13.98;;;12.25;;
22318;SDS011;11327;52.334;9.506;2023-06-22T12:25:34;13.58;;;12.37;;
22318;SDS011;11327;52.334;9.506;2023-06-22T12:28:55;14.13;;;12.63;;
22318;SDS011;11327;52.334;9.506;2023-06-22T12:32:16;13.15;;;11.95;;
22318;SDS011;11327;52.334;9.506;2023-06-22T12:35:36;12.58;;;11.48;;
22318;SDS011;11327;52.334;9.506;2023-06-22T12:38:57;13.50;;;12.15;;
22318;SDS011;11327;52.334;9.506;2023-06-22T12:42:18;12.73;;;11.63;;
22318;SDS011;11327;52.334;9.506;2023-06-22T12:45:39;11.53;;;10.43;;
22318;SDS011;11327;52.334;9.506;2023-06-22T12:49:00;11.80;;;10.75;;
22318;SDS011;11327;52.334;9.506;2023-06-22T12:52:21;12.68;;;11.48;;
22318;SDS011;11327;52.334;9.506;2023-06-22T12:55:42;12.60;;;11.38;;
22318;SDS011;11327;52.334;9.506;2023-06-22T12:59:03;12.58;;;11.38;;
22318;SDS011;11327;52.334;9.506;2023-06-22T13:02:24;11.88;;;10.75;;
22318;SDS011;11327;52.334;9.506;2023-06-22T13:05:45;12.63;;;11.50;;
22318;SDS011;11327;52.334;9.506;2023-06-22T13:09:06;11.88;;;10.65;;
22318;SDS011;11327;52.334;9.506;2023-06-22T13:12:26;13.35;;;12.05;;
22318;SDS011;11327;52.334;9.506;2023-06-22T13:15:47;12.60;;;11.50;;
22318;SDS011;11327;52.334;9.506;2023-06-22T13:19:08;12.30;;;11.20;;
22318;SDS011;11327;52.334;9.506;2023-06-22T13:25:52;11.40;;;10.40;;
22318;SDS011;11327;52.334;9.506;2023-06-22T13:29:13;11.70;;;10.70;;
22318;SDS011;11327;52.334;9.506;2023-06-22T13:32:34;12.82;;;11.63;;
22318;SDS011;11327;52.334;9.506;2023-06-22T13:35:54;12.95;;;11.73;;
22318;SDS011;11327;52.334;9.506;2023-06-22T13:39:15;12.25;;;11.15;;
22318;SDS011;11327;52.334;9.506;2023-06-22T13:42:36;12.82;;;11.65;;
22318;SDS011;11327;52.334;9.506;2023-06-22T13:45:57;12.05;;;11.05;;
22318;SDS011;11327;52.334;9.506;2023-06-22T13:49:17;12.50;;;11.30;;
22318;SDS011;11327;52.334;9.506;2023-06-22T13:52:38;12.80;;;11.60;;
22318;SDS011;11327;52.334;9.506;2023-06-22T13:55:59;12.85;;;11.75;;
22318;SDS011;11327;52.334;9.506;2023-06-22T13:59:20;13.55;;;12.30;;
22318;SDS011;11327;52.334;9.506;2023-06-22T14:02:42;12.95;;;11.65;;
22318;SDS011;11327;52.334;9.506;2023-06-22T14:06:02;13.98;;;12.70;;
22318;SDS011;11327;52.334;9.506;2023-06-22T14:09:24;14.30;;;13.00;;
22318;SDS011;11327;52.334;9.506;2023-06-22T14:12:45;13.68;;;12.28;;
22318;SDS011;11327;52.334;9.506;2023-06-22T14:16:06;13.22;;;11.93;;
22318;SDS011;11327;52.334;9.506;2023-06-22T14:19:27;13.98;;;12.58;;
22318;SDS011;11327;52.334;9.506;2023-06-22T14:22:47;13.20;;;12.10;;
22318;SDS011;11327;52.334;9.506;2023-06-22T14:26:08;14.60;;;13.20;;
22318;SDS011;11327;52.334;9.506;2023-06-22T14:29:29;14.58;;;13.28;;
22318;SDS011;11327;52.334;9.506;2023-06-22T14:32:50;15.25;;;13.88;;
22318;SDS011;11327;52.334;9.506;2023-06-22T14:36:10;16.00;;;14.50;;
22318;SDS011;11327;52.334;9.506;2023-06-22T14:39:31;14.40;;;13.08;;
22318;SDS011;11327;52.334;9.506;2023-06-22T14:42:52;15.48;;;14.07;;
22318;SDS011;11327;52.334;9.506;2023-06-22T14:46:14;21.05;;;15.23;;
22318;SDS011;11327;52.334;9.506;2023-06-22T14:49:35;16.37;;;14.78;;
22318;SDS011;11327;52.334;9.506;2023-06-22T14:52:57;17.52;;;15.85;;
22318;SDS011;11327;52.334;9.506;2023-06-22T14:56:17;17.00;;;15.40;;
22318;SDS011;11327;52.334;9.506;2023-06-22T14:59:38;17.55;;;15.70;;
22318;SDS011;11327;52.334;9.506;2023-06-22T15:02:59;18.52;;;16.62;;
22318;SDS011;11327;52.334;9.506;2023-06-22T15:06:20;19.55;;;17.65;;
22318;SDS011;11327;52.334;9.506;2023-06-22T15:09:41;18.70;;;16.90;;
22318;SDS011;11327;52.334;9.506;2023-06-22T15:13:03;18.87;;;17.07;;
22318;SDS011;11327;52.334;9.506;2023-06-22T15:16:23;18.52;;;16.77;;
22318;SDS011;11327;52.334;9.506;2023-06-22T15:19:46;21.10;;;18.90;;
22318;SDS011;11327;52.334;9.506;2023-06-22T15:23:07;19.87;;;17.85;;
22318;SDS011;11327;52.334;9.506;2023-06-22T15:26:29;19.70;;;17.80;;
22318;SDS011;11327;52.334;9.506;2023-06-22T15:29:50;23.87;;;21.42;;
22318;SDS011;11327;52.334;9.506;2023-06-22T15:33:11;22.80;;;20.50;;
22318;SDS011;11327;52.334;9.506;2023-06-22T15:36:32;20.45;;;18.35;;
22318;SDS011;11327;52.334;9.506;2023-06-22T15:39:54;21.17;;;19.07;;
22318;SDS011;11327;52.334;9.506;2023-06-22T15:43:16;20.97;;;18.98;;
22318;SDS011;11327;52.334;9.506;2023-06-22T15:46:37;22.22;;;19.80;;
22318;SDS011;11327;52.334;9.506;2023-06-22T15:49:57;20.52;;;18.60;;
22318;SDS011;11327;52.334;9.506;2023-06-22T15:53:18;23.42;;;21.05;;
22318;SDS011;11327;52.334;9.506;2023-06-22T15:56:39;22.45;;;20.12;;
22318;SDS011;11327;52.334;9.506;2023-06-22T15:59:59;22.95;;;20.65;;
22318;SDS011;11327;52.334;9.506;2023-06-22T16:03:20;23.38;;;21.07;;
22318;SDS011;11327;52.334;9.506;2023-06-22T16:06:41;23.75;;;21.30;;
22318;SDS011;11327;52.334;9.506;2023-06-22T16:10:02;22.85;;;20.65;;
22318;SDS011;11327;52.334;9.506;2023-06-22T16:13:23;23.87;;;21.55;;
22318;SDS011;11327;52.334;9.506;2023-06-22T16:16:44;23.87;;;21.57;;
22318;SDS011;11327;52.334;9.506;2023-06-22T16:20:05;22.02;;;19.92;;
22318;SDS011;11327;52.334;9.506;2023-06-22T16:23:27;22.62;;;20.23;;
22318;SDS011;11327;52.334;9.506;2023-06-22T16:26:48;23.92;;;21.60;;
22318;SDS011;11327;52.334;9.506;2023-06-22T16:30:09;22.73;;;20.57;;
22318;SDS011;11327;52.334;9.506;2023-06-22T16:33:30;24.15;;;21.62;;
22318;SDS011;11327;52.334;9.506;2023-06-22T16:36:50;24.63;;;22.20;;
22318;SDS011;11327;52.334;9.506;2023-06-22T16:40:11;26.50;;;23.80;;
22318;SDS011;11327;52.334;9.506;2023-06-22T16:43:32;24.92;;;22.42;;
22318;SDS011;11327;52.334;9.506;2023-06-22T16:46:53;22.10;;;19.92;;
22318;SDS011;11327;52.334;9.506;2023-06-22T16:50:14;20.12;;;18.12;;
22318;SDS011;11327;52.334;9.506;2023-06-22T16:53:35;21.37;;;19.27;;
22318;SDS011;11327;52.334;9.506;2023-06-22T16:56:59;21.07;;;18.73;;
22318;SDS011;11327;52.334;9.506;2023-06-22T17:00:19;20.50;;;18.50;;
22318;SDS011;11327;52.334;9.506;2023-06-22T17:03:43;18.82;;;16.93;;
22318;SDS011;11327;52.334;9.506;2023-06-22T17:07:08;19.92;;;17.92;;
22318;SDS011;11327;52.334;9.506;2023-06-22T17:10:29;20.72;;;18.73;;
22318;SDS011;11327;52.334;9.506;2023-06-22T17:13:51;18.92;;;17.00;;
22318;SDS011;11327;52.334;9.506;2023-06-22T17:17:13;19.45;;;17.62;;
22318;SDS011;11327;52.334;9.506;2023-06-22T17:20:37;18.10;;;16.12;;
22318;SDS011;11327;52.334;9.506;2023-06-22T17:23:58;18.87;;;17.07;;
22318;SDS011;11327;52.334;9.506;2023-06-22T17:27:27;17.60;;;15.80;;
22318;SDS011;11327;52.334;9.506;2023-06-22T17:31:07;17.05;;;15.45;;
22318;SDS011;11327;52.334;9.506;2023-06-22T17:34:14;16.82;;;15.28;;
22318;SDS011;11327;52.334;9.506;2023-06-22T17:37:48;17.35;;;15.60;;
22318;SDS011;11327;52.334;9.506;2023-06-22T17:41:11;17.42;;;15.63;;
22318;SDS011;11327;52.334;9.506;2023-06-22T17:44:32;17.52;;;15.85;;
22318;SDS011;11327;52.334;9.506;2023-06-22T17:47:53;17.07;;;15.45;;
22318;SDS011;11327;52.334;9.506;2023-06-22T17:51:15;16.65;;;15.05;;
22318;SDS011;11327;52.334;9.506;2023-06-22T17:54:36;17.02;;;15.28;;
22318;SDS011;11327;52.334;9.506;2023-06-22T17:57:59;18.48;;;16.57;;
22318;SDS011;11327;52.334;9.506;2023-06-22T18:05:02;18.40;;;16.60;;
22318;SDS011;11327;52.334;9.506;2023-06-22T18:08:25;19.20;;;17.27;;
22318;SDS011;11327;52.334;9.506;2023-06-22T18:11:47;18.45;;;16.65;;
22318;SDS011;11327;52.334;9.506;2023-06-22T18:15:09;20.25;;;18.23;;
22318;SDS011;11327;52.334;9.506;2023-06-22T18:18:31;20.05;;;18.05;;
22318;SDS011;11327;52.334;9.506;2023-06-22T18:21:53;19.92;;;17.90;;
22318;SDS011;11327;52.334;9.506;2023-06-22T18:25:15;19.52;;;17.52;;
22318;SDS011;11327;52.334;9.506;2023-06-22T18:28:39;21.35;;;19.05;;
22318;SDS011;11327;52.334;9.506;2023-06-22T18:32:00;20.85;;;18.73;;
22318;SDS011;11327;52.334;9.506;2023-06-22T18:35:21;20.57;;;18.48;;
22318;SDS011;11327;52.334;9.506;2023-06-22T18:38:42;22.48;;;20.17;;
22318;SDS011;11327;52.334;9.506;2023-06-22T18:42:13;24.18;;;19.90;;
22318;SDS011;11327;52.334;9.506;2023-06-22T18:45:30;21.30;;;19.20;;
22318;SDS011;11327;52.334;9.506;2023-06-22T18:48:58;22.32;;;19.95;;
22318;SDS011;11327;52.334;9.506;2023-06-22T18:52:25;19.90;;;17.80;;
22318;SDS011;11327;52.334;9.506;2023-06-22T18:55:49;20.45;;;18.25;;
22318;SDS011;11327;52.334;9.506;2023-06-22T18:59:14;20.70;;;18.60;;
22318;SDS011;11327;52.334;9.506;2023-06-22T19:02:39;20.10;;;18.00;;
22318;SDS011;11327;52.334;9.506;2023-06-22T19:06:53;21.68;;;19.37;;
22318;SDS011;11327;52.334;9.506;2023-06-22T19:13:50;20.32;;;18.23;;
22318;SDS011;11327;52.334;9.506;2023-06-22T19:17:12;22.37;;;19.00;;
22318;SDS011;11327;52.334;9.506;2023-06-22T19:20:33;21.00;;;18.73;;
22318;SDS011;11327;52.334;9.506;2023-06-22T19:23:54;20.82;;;18.62;;
22318;SDS011;11327;52.334;9.506;2023-06-22T19:27:18;19.90;;;17.82;;
22318;SDS011;11327;52.334;9.506;2023-06-22T19:30:39;19.62;;;17.52;;
22318;SDS011;11327;52.334;9.506;2023-06-22T19:34:01;20.60;;;18.48;;
22318;SDS011;11327;52.334;9.506;2023-06-22T19:37:28;20.68;;;18.48;;
22318;SDS011;11327;52.334;9.506;2023-06-22T19:40:49;21.50;;;19.00;;
22318;SDS011;11327;52.334;9.506;2023-06-22T19:44:09;18.80;;;16.85;;
22318;SDS011;11327;52.334;9.506;2023-06-22T19:47:31;21.42;;;19.12;;
22318;SDS011;11327;52.334;9.506;2023-06-22T19:50:51;19.98;;;17.87;;
22318;SDS011;11327;52.334;9.506;2023-06-22T19:54:12;20.30;;;17.27;;